East Finchley, United Kingdom
Current Conditions -  °F | °C
As of 10:50 AM on Saturday 20 Dec 2014 (Local Time) from EGWU Reporting Station
Clear Clear  
Wind Chill: 43°   Ceiling: Unl
Heat Index: 48°   Visibility: 6mi
Dew Point: 37°   Wind: 14mph
Humidity: 66%   Direction: 270°W
Pressure: 30.27"   Gusts: NA
Location:  51.58°N, 0.17°W
Report Text: EGWU 201050Z AUTO 27012KT 9999 // NCD 09/03 Q1025
Loading
Personal Weather Stations






























Interactive Weather Map New forecast layout! Learn more

10-Day Weather Forecast

Advertisements
Track Severe Weather on mobile